createdAt,value
2018-12-12T00:00:44.175Z,79.00
2018-12-12T00:03:11.087Z,79.30
2018-12-12T00:05:37.957Z,79.90
2018-12-12T00:08:04.839Z,80.00
2018-12-12T00:10:31.679Z,80.40
2018-12-12T00:12:58.572Z,80.50
2018-12-12T00:15:25.403Z,80.60
2018-12-12T00:17:52.339Z,81.20
2018-12-12T00:20:19.169Z,81.30
2018-12-12T00:22:46.094Z,81.60
2018-12-12T00:25:12.988Z,81.60
2018-12-12T00:27:39.830Z,81.60
2018-12-12T00:30:06.859Z,81.70
2018-12-12T00:32:33.764Z,81.80
2018-12-12T00:35:00.643Z,81.70
2018-12-12T00:37:27.488Z,81.70
2018-12-12T00:39:54.405Z,81.60
2018-12-12T00:42:21.335Z,81.40
2018-12-12T00:44:48.172Z,81.30
2018-12-12T00:47:15.020Z,81.20
2018-12-12T00:49:41.875Z,80.80
2018-12-12T00:52:08.744Z,80.50
2018-12-12T00:54:35.572Z,79.80
2018-12-12T00:57:02.428Z,80.00
2018-12-12T00:59:29.274Z,80.00
2018-12-12T01:01:56.135Z,79.80
2018-12-12T01:04:22.975Z,79.00
2018-12-12T01:06:49.901Z,78.80
2018-12-12T01:09:16.792Z,79.30
2018-12-12T01:11:43.721Z,79.70
2018-12-12T01:14:10.588Z,79.90
2018-12-12T01:16:37.443Z,80.10
2018-12-12T01:19:04.368Z,80.30
2018-12-12T01:21:31.220Z,80.30
2018-12-12T01:23:58.063Z,80.30
2018-12-12T01:26:24.991Z,80.00
2018-12-12T01:28:51.833Z,79.90
2018-12-12T01:31:18.688Z,79.70
2018-12-12T01:33:45.536Z,79.60
2018-12-12T01:36:12.391Z,79.70
2018-12-12T01:38:39.328Z,79.70
2018-12-12T01:41:06.179Z,79.60
2018-12-12T01:43:33.052Z,79.50
2018-12-12T01:45:59.928Z,79.80
2018-12-12T01:48:26.765Z,80.10
2018-12-12T01:50:53.629Z,79.80
2018-12-12T01:53:20.475Z,79.70
2018-12-12T01:55:47.384Z,79.80
2018-12-12T01:58:14.245Z,80.00
2018-12-12T02:00:41.087Z,80.00
2018-12-12T02:03:07.951Z,80.10
2018-12-12T02:05:34.779Z,80.40
2018-12-12T02:08:01.611Z,80.60
2018-12-12T02:10:28.558Z,80.40
2018-12-12T02:13:07.513Z,80.40
2018-12-12T02:15:34.358Z,80.50
2018-12-12T02:18:01.266Z,80.70
2018-12-12T02:20:28.141Z,80.70
2018-12-12T02:22:55.002Z,80.60
2018-12-12T02:25:21.922Z,80.60
2018-12-12T02:27:48.749Z,80.60
2018-12-12T02:30:15.646Z,80.40
2018-12-12T02:32:42.622Z,80.60
2018-12-12T02:35:09.488Z,80.90
2018-12-12T02:37:36.455Z,80.80
2018-12-12T02:40:03.749Z,80.70
2018-12-12T02:42:30.638Z,80.80
2018-12-12T02:44:57.501Z,80.60
2018-12-12T02:47:24.389Z,80.60
2018-12-12T02:49:51.283Z,80.70
2018-12-12T02:52:18.179Z,80.60
2018-12-12T02:54:45.028Z,80.70
2018-12-12T02:57:11.922Z,80.70
2018-12-12T02:59:38.809Z,80.10
2018-12-12T03:02:05.704Z,80.50
2018-12-12T03:04:32.572Z,80.90
2018-12-12T03:06:59.436Z,80.90
2018-12-12T03:09:26.312Z,81.00
2018-12-12T03:11:53.171Z,80.70
2018-12-12T03:14:20.060Z,80.60
2018-12-12T03:16:46.941Z,80.70
2018-12-12T03:19:13.816Z,80.90
2018-12-12T03:21:40.692Z,81.00
2018-12-12T03:24:07.562Z,80.90
2018-12-12T03:26:34.455Z,80.60
2018-12-12T03:29:01.438Z,80.70
2018-12-12T03:31:28.310Z,80.80
2018-12-12T03:33:55.194Z,80.50
2018-12-12T03:36:22.071Z,80.50
2018-12-12T03:38:48.965Z,80.40
2018-12-12T03:41:15.833Z,80.40
2018-12-12T03:43:42.718Z,80.50
2018-12-12T03:46:09.668Z,80.40
2018-12-12T03:48:36.594Z,80.30
2018-12-12T03:51:03.496Z,80.40
2018-12-12T03:53:30.462Z,80.80
2018-12-12T03:55:57.406Z,80.70
2018-12-12T03:58:24.293Z,80.90
2018-12-12T04:00:51.170Z,81.00
2018-12-12T04:03:18.049Z,81.00
2018-12-12T04:05:45.035Z,80.90
2018-12-12T04:08:11.904Z,81.00
2018-12-12T04:10:38.771Z,81.00
2018-12-12T04:13:05.669Z,80.90
2018-12-12T04:15:32.525Z,81.10
2018-12-12T04:17:59.413Z,81.20
2018-12-12T04:20:26.290Z,81.20
2018-12-12T04:22:53.182Z,81.40
2018-12-12T04:25:20.083Z,81.20
2018-12-12T04:27:46.954Z,81.10
2018-12-12T04:30:13.838Z,80.80
2018-12-12T04:32:40.695Z,80.70
2018-12-12T04:35:07.645Z,80.70
2018-12-12T04:37:34.536Z,80.70
2018-12-12T04:40:01.692Z,80.60
2018-12-12T04:42:28.567Z,80.80
2018-12-12T04:44:55.470Z,80.90
2018-12-12T04:47:22.338Z,81.00
2018-12-12T04:49:49.211Z,80.90
2018-12-12T04:52:16.105Z,81.00
2018-12-12T04:54:42.989Z,80.90
2018-12-12T04:57:09.904Z,81.20
2018-12-12T04:59:36.765Z,81.20
2018-12-12T05:02:03.698Z,81.30
2018-12-12T05:04:30.586Z,81.30
2018-12-12T05:06:57.451Z,81.30
2018-12-12T05:09:24.351Z,81.40
2018-12-12T05:11:51.216Z,81.50
2018-12-12T05:14:18.114Z,81.40
2018-12-12T05:16:45.002Z,81.40
2018-12-12T05:19:11.864Z,81.70
2018-12-12T05:21:38.758Z,81.80
2018-12-12T05:24:05.641Z,82.00
2018-12-12T05:26:32.510Z,82.00
2018-12-12T05:28:59.406Z,82.10
2018-12-12T05:31:26.314Z,82.10
2018-12-12T05:33:53.238Z,82.00
2018-12-12T05:36:20.129Z,81.80
2018-12-12T05:38:47.013Z,81.70
2018-12-12T05:41:13.887Z,81.10
2018-12-12T05:43:40.789Z,81.30
2018-12-12T05:46:07.660Z,81.50
2018-12-12T05:48:34.545Z,81.60
2018-12-12T05:51:01.455Z,82.00
2018-12-12T05:53:28.314Z,82.00
2018-12-12T05:55:55.187Z,82.20
2018-12-12T05:58:22.071Z,82.10
2018-12-12T06:00:48.965Z,82.00
2018-12-12T06:03:15.829Z,81.90
2018-12-12T06:05:42.773Z,81.50
2018-12-12T06:08:09.645Z,81.70
2018-12-12T06:10:36.543Z,81.50
2018-12-12T06:13:03.456Z,81.50
2018-12-12T06:15:30.341Z,81.70
2018-12-12T06:17:57.233Z,81.90
2018-12-12T06:20:24.156Z,81.80
2018-12-12T06:22:51.054Z,81.70
2018-12-12T06:25:17.930Z,81.80
2018-12-12T06:27:44.822Z,81.80
2018-12-12T06:30:11.769Z,81.90
2018-12-12T06:32:38.699Z,81.90
2018-12-12T06:35:05.714Z,81.70
2018-12-12T06:37:32.629Z,81.80
2018-12-12T06:39:59.504Z,81.50
2018-12-12T06:42:26.383Z,81.50
2018-12-12T06:44:53.274Z,81.40
2018-12-12T06:47:20.144Z,81.30
2018-12-12T06:49:47.032Z,81.20
2018-12-12T06:52:13.913Z,81.20
2018-12-12T06:54:40.793Z,81.50
2018-12-12T06:57:07.698Z,81.40
2018-12-12T06:59:34.637Z,81.30
2018-12-12T07:02:01.525Z,81.40
2018-12-12T07:04:28.430Z,81.30
2018-12-12T07:06:55.308Z,81.20
2018-12-12T07:09:22.170Z,81.10
2018-12-12T07:11:49.689Z,81.10
2018-12-12T07:14:16.587Z,81.10
2018-12-12T07:16:43.461Z,80.90
2018-12-12T07:19:10.353Z,80.80
2018-12-12T07:21:37.229Z,81.10
2018-12-12T07:24:04.121Z,81.10
2018-12-12T07:26:31.016Z,81.20
2018-12-12T07:28:57.909Z,81.10
2018-12-12T07:31:24.793Z,81.10
2018-12-12T07:33:51.721Z,81.00
2018-12-12T07:36:18.602Z,80.90
2018-12-12T07:38:45.491Z,80.30
2018-12-12T07:41:12.353Z,80.00
2018-12-12T07:43:39.250Z,80.10
2018-12-12T07:46:06.116Z,79.80
2018-12-12T07:48:32.985Z,79.30
2018-12-12T07:50:59.881Z,79.70
2018-12-12T07:53:26.769Z,79.80
2018-12-12T07:55:54.382Z,80.20
2018-12-12T07:58:21.246Z,80.50
2018-12-12T08:00:48.127Z,80.70
2018-12-12T08:03:15.026Z,81.10
2018-12-12T08:05:41.899Z,81.30
2018-12-12T08:08:08.794Z,81.40
2018-12-12T08:10:35.657Z,80.80
2018-12-12T08:13:02.535Z,80.70
2018-12-12T08:15:29.438Z,81.10
2018-12-12T08:17:56.306Z,81.00
2018-12-12T08:20:23.183Z,80.90
2018-12-12T08:22:50.069Z,81.20
2018-12-12T08:25:17.006Z,81.20
2018-12-12T08:27:43.893Z,81.50
2018-12-12T08:30:11.483Z,81.20
2018-12-12T08:32:38.383Z,80.90
2018-12-12T08:35:05.369Z,80.60
2018-12-12T08:37:32.267Z,80.70
2018-12-12T08:39:59.140Z,80.60
2018-12-12T08:42:26.018Z,80.50
2018-12-12T08:44:52.994Z,80.30
2018-12-12T08:47:19.892Z,80.00
2018-12-12T08:49:46.761Z,80.00
2018-12-12T08:52:19.630Z,80.00
2018-12-12T08:54:46.499Z,79.70
2018-12-12T08:57:13.353Z,79.00
2018-12-12T08:59:40.262Z,78.50
2018-12-12T09:02:07.130Z,77.10
2018-12-12T09:04:34.039Z,75.40
2018-12-12T09:07:00.917Z,75.40
2018-12-12T09:09:27.783Z,76.10
2018-12-12T09:11:54.684Z,76.50
2018-12-12T09:14:21.645Z,76.10
2018-12-12T09:16:48.510Z,76.30
2018-12-12T09:19:15.394Z,76.20
2018-12-12T09:21:42.262Z,75.90
2018-12-12T09:24:09.150Z,75.80
2018-12-12T09:26:36.038Z,74.80
2018-12-12T09:29:02.929Z,74.40
2018-12-12T09:31:29.834Z,75.20
2018-12-12T09:33:56.694Z,75.00
2018-12-12T09:36:23.693Z,75.60
2018-12-12T09:38:50.577Z,75.70
2018-12-12T09:41:17.454Z,75.80
2018-12-12T09:43:44.340Z,75.40
2018-12-12T09:46:11.227Z,75.00
2018-12-12T09:48:38.114Z,75.60
2018-12-12T09:51:07.252Z,76.00
2018-12-12T09:53:34.160Z,75.40
2018-12-12T09:56:01.102Z,74.20
2018-12-12T09:58:27.986Z,74.10
2018-12-12T10:00:54.877Z,73.90
2018-12-12T10:03:21.775Z,73.50
2018-12-12T10:05:48.673Z,73.80
2018-12-12T10:08:15.524Z,74.00
2018-12-12T10:10:42.414Z,72.60
2018-12-12T10:13:09.306Z,72.50
2018-12-12T10:15:36.198Z,73.10
2018-12-12T10:18:03.129Z,73.50
2018-12-12T10:20:30.055Z,73.80
2018-12-12T10:22:56.941Z,73.80
2018-12-12T10:25:23.838Z,73.70
2018-12-12T10:27:50.768Z,74.00
2018-12-12T10:30:17.615Z,74.00
2018-12-12T10:32:44.503Z,73.40
2018-12-12T10:35:11.372Z,73.20
2018-12-12T10:37:38.261Z,73.30
2018-12-12T10:40:05.234Z,72.50
2018-12-12T10:42:32.118Z,72.00
2018-12-12T10:44:59.001Z,71.80
2018-12-12T10:47:25.882Z,71.10
2018-12-12T10:49:52.778Z,70.80
2018-12-12T10:52:20.099Z,70.40
2018-12-12T10:54:47.069Z,70.30
2018-12-12T10:57:14.021Z,70.20
2018-12-12T10:59:40.894Z,70.00
2018-12-12T11:02:07.837Z,70.60
2018-12-12T11:04:34.706Z,70.80
2018-12-12T11:07:01.595Z,70.50
2018-12-12T11:09:28.491Z,70.70
2018-12-12T11:11:55.399Z,70.80
2018-12-12T11:14:22.283Z,71.40
2018-12-12T11:16:49.227Z,70.70
2018-12-12T11:19:16.389Z,71.10
2018-12-12T11:21:43.278Z,71.10
2018-12-12T11:24:10.156Z,70.90
2018-12-12T11:26:37.108Z,70.70
2018-12-12T11:29:04.018Z,70.60
2018-12-12T11:31:30.912Z,70.70
2018-12-12T11:33:57.875Z,70.50
2018-12-12T11:36:24.737Z,69.90
2018-12-12T11:38:51.608Z,70.10
2018-12-12T11:41:18.490Z,69.60
2018-12-12T11:43:45.370Z,69.60
2018-12-12T11:46:12.264Z,69.90
2018-12-12T11:48:39.146Z,70.40
2018-12-12T11:51:06.006Z,68.80
2018-12-12T11:53:32.866Z,69.80
2018-12-12T11:55:59.749Z,69.60
2018-12-12T11:58:26.630Z,69.40
2018-12-12T12:00:53.521Z,68.90
2018-12-12T12:03:20.410Z,68.50
2018-12-12T12:05:47.289Z,69.50
2018-12-12T12:08:14.149Z,69.70
2018-12-12T12:10:41.030Z,69.80
2018-12-12T12:13:07.931Z,69.60
2018-12-12T12:15:34.809Z,69.30
2018-12-12T12:18:01.712Z,69.70
2018-12-12T12:20:28.703Z,69.10
2018-12-12T12:22:55.566Z,69.40
2018-12-12T12:25:22.462Z,69.70
2018-12-12T12:27:49.338Z,69.60
2018-12-12T12:30:16.207Z,69.50
2018-12-12T12:32:43.099Z,69.50
2018-12-12T12:35:10.110Z,69.40
2018-12-12T12:37:36.982Z,69.00
2018-12-12T12:40:05.839Z,68.70
2018-12-12T12:42:32.860Z,69.10
2018-12-12T12:44:59.722Z,68.30
2018-12-12T12:47:26.609Z,68.00
2018-12-12T12:49:53.469Z,69.20
2018-12-12T12:52:20.654Z,69.90
2018-12-12T12:54:47.530Z,69.20
2018-12-12T12:57:14.416Z,69.80
2018-12-12T12:59:41.303Z,69.90
2018-12-12T13:02:08.218Z,69.20
2018-12-12T13:04:35.097Z,69.40
2018-12-12T13:07:01.962Z,69.90
2018-12-12T13:09:28.847Z,69.60
2018-12-12T13:11:55.810Z,69.30
2018-12-12T13:14:22.821Z,68.90
2018-12-12T13:16:49.789Z,68.60
2018-12-12T13:19:16.661Z,68.10
2018-12-12T13:21:43.546Z,68.40
2018-12-12T13:24:10.442Z,68.00
2018-12-12T13:26:37.307Z,68.20
2018-12-12T13:29:05.045Z,68.60
2018-12-12T13:31:31.943Z,69.70
2018-12-12T13:33:58.795Z,69.30
2018-12-12T13:36:25.679Z,70.40
2018-12-12T13:38:52.550Z,69.90
2018-12-12T13:41:19.443Z,70.70
2018-12-12T13:43:46.339Z,70.30
2018-12-12T13:46:13.220Z,70.80
2018-12-12T13:48:40.174Z,70.50
2018-12-12T13:51:07.038Z,70.60
2018-12-12T13:53:33.925Z,71.00
2018-12-12T13:56:00.854Z,70.60
2018-12-12T13:58:27.787Z,69.90
2018-12-12T14:00:54.658Z,70.20
2018-12-12T14:03:21.553Z,70.10
2018-12-12T14:05:48.473Z,70.40
2018-12-12T14:08:15.377Z,69.60
2018-12-12T14:10:42.249Z,69.70
2018-12-12T14:13:09.182Z,70.60
2018-12-12T14:15:36.050Z,70.60
2018-12-12T14:18:02.978Z,70.80
2018-12-12T14:20:29.868Z,71.00
2018-12-12T14:22:56.754Z,71.00
2018-12-12T14:25:23.639Z,70.90
2018-12-12T14:27:50.522Z,70.80
2018-12-12T14:30:17.389Z,70.60
2018-12-12T14:32:44.262Z,70.80
2018-12-12T14:35:11.206Z,70.50
2018-12-12T14:37:38.091Z,70.40
2018-12-12T14:40:05.234Z,70.70
2018-12-12T14:42:32.130Z,70.80
2018-12-12T14:44:59.008Z,70.50
2018-12-12T14:47:25.900Z,70.40
2018-12-12T14:49:52.766Z,70.40
2018-12-12T14:52:19.649Z,71.40
2018-12-12T14:54:46.561Z,69.80
2018-12-12T14:57:13.441Z,70.10
2018-12-12T14:59:40.337Z,69.60
2018-12-12T15:02:07.212Z,69.30
2018-12-12T15:04:35.987Z,69.80
2018-12-12T15:07:02.970Z,70.10
2018-12-12T15:09:29.843Z,70.70
2018-12-12T15:11:56.733Z,71.80
2018-12-12T15:14:23.651Z,72.60
2018-12-12T15:16:50.543Z,72.60
2018-12-12T15:19:17.457Z,70.90
2018-12-12T15:21:44.340Z,70.60
2018-12-12T15:24:11.235Z,71.10
2018-12-12T15:26:38.098Z,71.20
2018-12-12T15:29:04.973Z,71.20
2018-12-12T15:31:31.901Z,71.30
2018-12-12T15:33:58.815Z,71.30
2018-12-12T15:36:25.711Z,71.90
2018-12-12T15:38:52.603Z,72.30
2018-12-12T15:41:19.492Z,72.20
2018-12-12T15:43:46.411Z,72.10
2018-12-12T15:46:13.306Z,72.20
2018-12-12T15:48:40.180Z,72.50
2018-12-12T15:51:07.077Z,72.50
2018-12-12T15:53:33.950Z,72.80
2018-12-12T15:56:00.807Z,72.90
2018-12-12T15:58:27.706Z,73.20
2018-12-12T16:00:54.565Z,73.10
2018-12-12T16:03:21.477Z,72.90
2018-12-12T16:05:48.366Z,72.80
2018-12-12T16:08:15.252Z,72.80
2018-12-12T16:10:42.105Z,73.00
2018-12-12T16:13:08.976Z,73.30
2018-12-12T16:15:35.896Z,73.30
2018-12-12T16:18:02.804Z,73.30
2018-12-12T16:20:29.702Z,73.50
2018-12-12T16:22:56.549Z,73.30
2018-12-12T16:25:23.523Z,73.40
2018-12-12T16:27:50.390Z,73.70
2018-12-12T16:30:17.254Z,74.10
2018-12-12T16:32:44.166Z,74.20
2018-12-12T16:35:11.062Z,74.20
2018-12-12T16:37:38.710Z,73.80
2018-12-12T16:40:05.706Z,74.10
2018-12-12T16:42:32.574Z,73.90
2018-12-12T16:44:59.438Z,74.30
2018-12-12T16:47:26.346Z,74.30
2018-12-12T16:49:53.228Z,74.20
2018-12-12T16:52:20.346Z,74.10
2018-12-12T16:54:47.214Z,74.20
2018-12-12T16:57:14.110Z,74.30
2018-12-12T16:59:40.977Z,74.10
2018-12-12T17:02:07.876Z,74.40
2018-12-12T17:04:34.738Z,74.20
2018-12-12T17:07:01.610Z,74.40
2018-12-12T17:09:28.502Z,74.70
2018-12-12T17:11:55.393Z,74.90
2018-12-12T17:14:22.290Z,75.00
2018-12-12T17:16:49.177Z,75.10
2018-12-12T17:19:16.053Z,75.60
2018-12-12T17:21:42.977Z,75.50
2018-12-12T17:24:09.857Z,75.10
2018-12-12T17:26:36.743Z,75.10
2018-12-12T17:29:03.663Z,75.20
2018-12-12T17:31:30.543Z,75.10
2018-12-12T17:33:57.411Z,74.70
2018-12-12T17:36:24.386Z,75.00
2018-12-12T17:38:51.253Z,74.70
2018-12-12T17:41:18.158Z,74.50
2018-12-12T17:43:45.034Z,74.70
2018-12-12T17:46:11.918Z,74.40
2018-12-12T17:48:38.838Z,74.20
2018-12-12T17:51:05.786Z,74.30
2018-12-12T17:53:32.641Z,74.50
2018-12-12T17:55:59.527Z,74.00
2018-12-12T17:58:27.297Z,74.10
2018-12-12T18:00:54.193Z,74.10
2018-12-12T18:03:21.049Z,74.20
2018-12-12T18:05:47.921Z,74.40
2018-12-12T18:08:14.801Z,74.10
2018-12-12T18:10:41.705Z,74.10
2018-12-12T18:13:08.569Z,74.20
2018-12-12T18:15:35.614Z,74.30
2018-12-12T18:18:02.498Z,74.40
2018-12-12T18:20:29.432Z,74.50
2018-12-12T18:22:56.355Z,74.40
2018-12-12T18:25:23.223Z,74.10
2018-12-12T18:27:50.097Z,74.40
2018-12-12T18:30:16.997Z,74.60
2018-12-12T18:32:43.870Z,74.50
2018-12-12T18:35:11.358Z,74.00
2018-12-12T18:37:38.321Z,73.70
2018-12-12T18:40:05.350Z,73.80
2018-12-12T18:42:32.229Z,73.80
2018-12-12T18:44:59.135Z,73.60
2018-12-12T18:47:26.022Z,73.70
2018-12-12T18:49:52.890Z,73.60
2018-12-12T18:52:19.798Z,73.20
2018-12-12T18:54:46.719Z,72.70
2018-12-12T18:57:13.611Z,72.90
2018-12-12T18:59:40.511Z,73.80
2018-12-12T19:02:07.395Z,73.50
2018-12-12T19:04:34.288Z,74.00
2018-12-12T19:07:01.196Z,73.20
2018-12-12T19:09:28.097Z,72.60
2018-12-12T19:11:54.965Z,73.00
2018-12-12T19:14:21.894Z,73.10
2018-12-12T19:16:48.785Z,73.40
2018-12-12T19:19:15.744Z,73.30
2018-12-12T19:21:42.734Z,73.40
2018-12-12T19:24:09.666Z,73.50
2018-12-12T19:26:36.557Z,73.40
2018-12-12T19:29:03.514Z,72.90
2018-12-12T19:31:30.379Z,73.00
2018-12-12T19:33:57.287Z,73.30
2018-12-12T19:36:24.240Z,73.10
2018-12-12T19:38:51.125Z,73.00
2018-12-12T19:41:18.004Z,72.90
2018-12-12T19:43:45.039Z,72.80
2018-12-12T19:46:11.913Z,73.00
2018-12-12T19:48:38.868Z,72.50
2018-12-12T19:51:05.770Z,72.40
2018-12-12T19:53:32.671Z,72.50
2018-12-12T19:55:59.602Z,72.70
2018-12-12T19:58:26.531Z,72.70
2018-12-12T20:00:53.408Z,72.70
2018-12-12T20:03:20.298Z,72.50
2018-12-12T20:05:47.193Z,72.90
2018-12-12T20:08:14.087Z,73.20
2018-12-12T20:10:40.982Z,73.20
2018-12-12T20:13:07.950Z,73.50
2018-12-12T20:15:34.888Z,73.40
2018-12-12T20:18:01.777Z,73.40
2018-12-12T20:20:28.742Z,73.20
2018-12-12T20:22:55.638Z,73.40
2018-12-12T20:25:22.530Z,74.00
2018-12-12T20:27:49.499Z,73.70
2018-12-12T20:30:16.438Z,73.40
2018-12-12T20:32:43.381Z,73.20
2018-12-12T20:35:10.312Z,73.50
2018-12-12T20:37:37.184Z,74.00
2018-12-12T20:40:04.804Z,74.00
2018-12-12T20:42:31.672Z,74.10
2018-12-12T20:44:58.851Z,74.40
2018-12-12T20:47:25.721Z,74.10
2018-12-12T20:49:52.623Z,74.30
2018-12-12T20:52:19.519Z,74.30
2018-12-12T20:54:46.433Z,74.40
2018-12-12T20:57:13.294Z,74.50
2018-12-12T20:59:40.199Z,74.40
2018-12-12T21:02:07.073Z,74.40
2018-12-12T21:04:33.954Z,74.50
2018-12-12T21:07:00.850Z,74.90
2018-12-12T21:09:27.743Z,74.90
2018-12-12T21:11:54.639Z,75.20
2018-12-12T21:14:21.533Z,75.00
2018-12-12T21:19:24.669Z,75.10
2018-12-12T21:21:51.608Z,75.30
2018-12-12T21:24:18.483Z,75.30
2018-12-12T21:26:45.444Z,75.40
2018-12-12T21:29:12.373Z,75.40
2018-12-12T21:31:39.271Z,75.30
2018-12-12T21:34:06.189Z,75.30
2018-12-12T21:36:33.113Z,75.60
2018-12-12T21:39:00.045Z,75.60
2018-12-12T21:41:26.919Z,75.60
2018-12-12T21:43:53.825Z,75.70
2018-12-12T21:46:20.705Z,75.70
2018-12-12T21:48:47.601Z,75.60
2018-12-12T21:51:14.469Z,75.80
2018-12-12T21:53:41.405Z,75.70
2018-12-12T21:56:08.291Z,75.80
2018-12-12T21:58:35.199Z,76.00
2018-12-12T22:01:02.738Z,75.60
2018-12-12T22:03:29.650Z,76.00
2018-12-12T22:05:56.538Z,76.00
2018-12-12T22:08:23.462Z,75.90
2018-12-12T22:10:50.409Z,76.00
2018-12-12T22:13:17.333Z,76.10
2018-12-12T22:15:44.202Z,75.80
2018-12-12T22:18:11.098Z,76.60
2018-12-12T22:20:39.310Z,77.60
2018-12-12T22:23:06.541Z,76.30
2018-12-12T22:25:33.426Z,75.70
2018-12-12T22:28:00.293Z,76.20
2018-12-12T22:30:27.191Z,76.20
2018-12-12T22:32:54.057Z,76.30
2018-12-12T22:35:20.958Z,76.30
2018-12-12T22:37:48.005Z,76.50
2018-12-12T22:40:14.887Z,76.70
2018-12-12T22:42:41.780Z,76.70
2018-12-12T22:45:08.982Z,76.90
2018-12-12T22:47:35.891Z,77.10
2018-12-12T22:50:03.294Z,77.00
2018-12-12T22:52:30.168Z,77.40
2018-12-12T22:54:57.061Z,77.20
2018-12-12T22:57:23.956Z,77.10
2018-12-12T22:59:50.862Z,77.00
2018-12-12T23:02:17.762Z,76.90
2018-12-12T23:04:44.669Z,76.70
2018-12-12T23:07:11.609Z,76.70
2018-12-12T23:09:38.526Z,76.90
2018-12-12T23:12:05.422Z,76.90
2018-12-12T23:14:32.412Z,76.90
2018-12-12T23:16:59.342Z,76.80
2018-12-12T23:19:26.206Z,76.60
2018-12-12T23:21:53.097Z,76.60
2018-12-12T23:24:25.062Z,76.60
2018-12-12T23:26:48.847Z,76.80
2018-12-12T23:29:15.731Z,76.60
2018-12-12T23:31:42.619Z,76.40
2018-12-12T23:34:09.477Z,76.30
2018-12-12T23:36:36.422Z,76.10
2018-12-12T23:39:05.394Z,76.50
2018-12-12T23:41:32.489Z,76.90
2018-12-12T23:43:59.353Z,76.90
2018-12-12T23:46:26.246Z,77.00
2018-12-12T23:48:53.358Z,76.80
2018-12-12T23:51:20.242Z,76.90
2018-12-12T23:53:47.126Z,76.90
2018-12-12T23:56:13.985Z,77.00
2018-12-12T23:58:40.884Z,77.40
